Time;durP1;ratioP1;P1;durP2;ratioP2;P2;SDS_P1;SDS_P2;PMS_P1;PMS_P2;Temp;Humidity;BMP_temperature;BMP_pressure;BME280_temperature;BME280_humidity;BME280_pressure;Samples;Min_cycle;Max_cycle;Signal;HPM_P1;HPM_P2
2021/04/05 00:02:25;;;;;;;17.00;7.20;;;;;;;6.11;59.94;95984.09;5037744;28;20566;-86
2021/04/05 00:04:51;;;;;;;12.07;6.03;;;;;;;6.17;60.22;95992.72;5038851;28;20877;-86
2021/04/05 00:07:18;;;;;;;10.43;6.20;;;;;;;6.18;59.69;95988.78;5038702;28;20448;-85
2021/04/05 00:09:45;;;;;;;9.90;5.63;;;;;;;6.19;60.03;95987.56;5038737;28;20788;-86
2021/04/05 00:12:11;;;;;;;13.33;6.40;;;;;;;6.13;59.77;95981.59;5038446;28;20458;-85
2021/04/05 00:14:39;;;;;;;16.37;6.27;;;;;;;6.18;59.90;95989.53;5039197;28;20522;-86
2021/04/05 00:17:05;;;;;;;9.83;6.70;;;;;;;6.14;59.97;95981.06;5039122;28;20467;-85
2021/04/05 00:19:32;;;;;;;12.70;7.00;;;;;;;6.09;60.42;95979.25;5038300;28;20531;-86
2021/04/05 00:21:58;;;;;;;16.83;6.03;;;;;;;6.09;60.16;95978.53;5038626;28;20550;-86
2021/04/05 00:24:25;;;;;;;12.83;6.50;;;;;;;6.09;60.40;95971.22;5037437;28;20878;-86
2021/04/05 00:26:51;;;;;;;9.60;5.93;;;;;;;6.08;60.39;95969.75;5038064;28;20492;-86
2021/04/05 00:29:17;;;;;;;9.73;5.93;;;;;;;6.09;60.23;95965.84;5038946;28;20467;-85
2021/04/05 00:31:43;;;;;;;10.80;6.67;;;;;;;6.09;60.32;95952.47;5038211;28;20881;-85
2021/04/05 00:34:09;;;;;;;14.43;6.00;;;;;;;6.14;60.59;95951.63;5038793;28;20442;-86
2021/04/05 00:36:35;;;;;;;13.13;5.50;;;;;;;6.15;60.26;95941.63;5038653;28;20504;-86
2021/04/05 00:39:01;;;;;;;16.13;6.20;;;;;;;6.16;60.43;95948.44;5038105;28;20471;-86
2021/04/05 00:41:29;;;;;;;18.70;8.10;;;;;;;6.18;60.15;95952.03;5039234;28;20520;-85
2021/04/05 00:43:55;;;;;;;18.30;5.90;;;;;;;6.22;60.34;95960.47;5038810;28;20447;-86
2021/04/05 00:46:22;;;;;;;10.23;5.23;;;;;;;6.21;60.47;95967.06;5037852;28;20534;-86
2021/04/05 00:48:50;;;;;;;11.40;6.07;;;;;;;6.24;60.16;95965.28;5037621;28;20526;-85
2021/04/05 00:51:19;;;;;;;10.77;5.13;;;;;;;6.18;60.73;95962.75;5037606;28;20471;-86
2021/04/05 00:53:47;;;;;;;11.07;6.67;;;;;;;6.19;60.56;95958.81;5037553;28;20414;-85
2021/04/05 00:56:14;;;;;;;19.23;5.37;;;;;;;6.13;60.36;95954.81;5038246;28;20534;-86
2021/04/05 00:58:41;;;;;;;8.20;5.07;;;;;;;6.18;60.77;95937.91;5041126;28;21061;-85
2021/04/05 01:01:09;;;;;;;11.73;4.83;;;;;;;6.17;60.07;95941.84;5044129;28;20546;-86
2021/04/05 01:03:37;;;;;;;8.00;4.90;;;;;;;6.15;60.59;95936.28;5043683;28;20450;-86
2021/04/05 01:06:06;;;;;;;9.50;5.73;;;;;;;6.05;60.60;95927.97;5043820;28;20486;-86
2021/04/05 01:08:33;;;;;;;12.60;5.90;;;;;;;6.08;60.78;95929.59;5040924;28;20439;-86
2021/04/05 01:10:59;;;;;;;12.33;5.33;;;;;;;6.03;60.97;95922.41;5037817;28;20463;-86
2021/04/05 01:13:25;;;;;;;13.83;5.33;;;;;;;6.00;60.82;95904.72;5038367;28;20443;-86
2021/04/05 01:15:52;;;;;;;8.93;5.57;;;;;;;5.97;60.79;95900.38;5042298;28;20435;-87
2021/04/05 01:18:20;;;;;;;14.27;6.03;;;;;;;6.01;60.73;95900.81;5058511;28;20451;-84
2021/04/05 01:20:46;;;;;;;13.33;5.03;;;;;;;5.99;60.65;95897.91;5058686;28;20448;-85
2021/04/05 01:23:14;;;;;;;8.73;4.67;;;;;;;5.96;60.87;95900.91;5058693;28;20491;-85
2021/04/05 01:25:40;;;;;;;9.63;5.20;;;;;;;5.88;61.56;95890.84;5040917;28;20539;-85
2021/04/05 01:28:08;;;;;;;11.70;6.60;;;;;;;5.87;61.45;95894.03;5038810;28;20482;-86
2021/04/05 01:30:38;;;;;;;7.83;5.30;;;;;;;5.88;61.63;95893.53;5037242;28;20503;-85
2021/04/05 01:33:07;;;;;;;8.80;4.87;;;;;;;5.85;61.70;95899.16;5037169;28;20975;-85
2021/04/05 01:35:37;;;;;;;9.20;5.80;;;;;;;5.77;61.82;95898.34;5036195;28;20467;-86
2021/04/05 01:38:03;;;;;;;14.07;5.60;;;;;;;5.77;62.05;95887.66;5037152;28;20534;-86
2021/04/05 01:40:33;;;;;;;10.33;5.10;;;;;;;5.68;62.35;95883.44;5037190;28;20427;-87
2021/04/05 01:42:59;;;;;;;11.50;4.87;;;;;;;5.61;62.44;95875.31;5038399;28;20761;-86
2021/04/05 01:45:25;;;;;;;11.77;5.43;;;;;;;5.58;62.56;95866.38;5037095;28;20461;-86
2021/04/05 01:47:52;;;;;;;6.57;5.17;;;;;;;5.56;62.92;95868.16;5037613;28;20532;-86
2021/04/05 01:50:19;;;;;;;11.30;5.23;;;;;;;5.62;62.56;95866.06;5037538;28;21070;-86
2021/04/05 01:52:45;;;;;;;13.60;5.80;;;;;;;5.59;62.79;95873.19;5037533;28;20467;-87
2021/04/05 01:55:12;;;;;;;13.30;6.03;;;;;;;5.62;62.49;95872.16;5038026;28;20443;-86
2021/04/05 01:57:39;;;;;;;13.37;6.10;;;;;;;5.60;62.87;95857.84;5037711;28;20439;-86
2021/04/05 02:00:09;;;;;;;16.47;5.73;;;;;;;5.48;62.95;95856.66;5037753;28;20491;-85
2021/04/05 02:02:36;;;;;;;10.73;5.43;;;;;;;5.37;63.66;95847.59;5037581;28;20451;-86
2021/04/05 02:05:06;;;;;;;8.57;4.90;;;;;;;5.40;63.38;95841.22;5037504;28;20424;-86
2021/04/05 02:07:32;;;;;;;9.00;5.60;;;;;;;5.36;63.44;95834.75;5036987;28;20844;-86
2021/04/05 02:09:58;;;;;;;12.23;5.17;;;;;;;5.35;63.75;95836.72;5039213;28;20435;-86
2021/04/05 02:12:24;;;;;;;11.70;5.70;;;;;;;5.37;63.41;95828.88;5040860;28;20517;-86
2021/04/05 02:14:51;;;;;;;15.93;5.70;;;;;;;5.34;63.89;95815.81;5040894;28;20443;-86
2021/04/05 02:17:18;;;;;;;10.23;6.03;;;;;;;5.27;64.24;95822.53;5040791;28;21021;-85
2021/04/05 02:19:45;;;;;;;9.80;4.90;;;;;;;5.21;64.53;95805.16;5040271;28;20491;-86
2021/04/05 02:22:12;;;;;;;17.23;6.53;;;;;;;5.18;64.48;95804.22;5040639;28;21058;-85
2021/04/05 02:24:41;;;;;;;15.07;6.17;;;;;;;5.15;64.65;95805.28;5040877;28;20858;-85
2021/04/05 02:27:09;;;;;;;11.70;6.00;;;;;;;5.10;64.80;95795.41;5040413;28;20489;-86
2021/04/05 02:29:35;;;;;;;10.60;5.20;;;;;;;5.11;65.06;95788.09;5041163;28;20443;-86
2021/04/05 02:32:02;;;;;;;13.23;7.10;;;;;;;5.12;64.86;95776.91;5041332;28;20462;-86
2021/04/05 02:34:29;;;;;;;11.67;5.60;;;;;;;5.12;64.88;95784.19;5041829;28;20493;-86
2021/04/05 02:36:55;;;;;;;9.47;4.83;;;;;;;5.08;65.32;95779.16;5041778;28;20435;-86
2021/04/05 02:39:21;;;;;;;8.77;4.73;;;;;;;5.11;65.24;95780.78;5041272;28;20485;-86
2021/04/05 02:41:49;;;;;;;12.93;5.63;;;;;;;5.14;65.14;95777.09;5040933;28;20453;-86
2021/04/05 02:44:18;;;;;;;12.53;6.30;;;;;;;5.09;65.37;95769.19;5042654;28;20443;-86
2021/04/05 02:46:47;;;;;;;8.37;5.30;;;;;;;5.04;65.88;95765.41;5045828;28;20445;-86
2021/04/05 02:49:17;;;;;;;13.00;6.00;;;;;;;5.04;66.06;95767.34;5054798;28;20454;-84
2021/04/05 02:51:44;;;;;;;9.57;5.13;;;;;;;5.04;66.03;95770.75;5057445;28;20497;-85
2021/04/05 02:54:12;;;;;;;14.50;6.37;;;;;;;4.93;66.58;95768.28;5056891;28;20503;-86
2021/04/05 02:56:39;;;;;;;11.13;6.00;;;;;;;4.97;66.40;95771.38;5057996;28;20491;-86
2021/04/05 02:59:07;;;;;;;13.60;5.17;;;;;;;4.93;66.83;95768.28;5057737;28;20542;-85
2021/04/05 03:01:34;;;;;;;15.03;6.20;;;;;;;4.91;66.90;95757.41;5052469;28;20906;-86
2021/04/05 03:04:02;;;;;;;10.70;4.90;;;;;;;4.86;66.84;95764.28;5042906;28;20462;-86
2021/04/05 03:06:29;;;;;;;10.30;5.00;;;;;;;4.86;67.07;95756.25;5040729;28;20515;-86
2021/04/05 03:08:58;;;;;;;9.67;5.60;;;;;;;4.77;67.44;95753.28;5040936;28;20531;-86
2021/04/05 03:11:25;;;;;;;13.50;5.37;;;;;;;4.73;67.71;95755.59;5040118;28;20507;-86
2021/04/05 03:13:51;;;;;;;9.90;4.83;;;;;;;4.71;67.81;95747.34;5039634;28;20446;-86
2021/04/05 03:16:21;;;;;;;10.40;6.10;;;;;;;4.68;67.82;95753.72;5040103;28;20447;-86
2021/04/05 03:18:49;;;;;;;9.77;5.63;;;;;;;4.63;68.28;95738.53;5039899;28;20495;-86
2021/04/05 03:21:17;;;;;;;13.53;5.53;;;;;;;4.59;68.67;95735.44;5039026;28;20471;-86
2021/04/05 03:23:45;;;;;;;8.77;5.37;;;;;;;4.62;68.58;95729.06;5038983;28;20518;-86
2021/04/05 03:26:11;;;;;;;9.60;5.90;;;;;;;4.59;68.48;95716.75;5039737;28;20450;-86
2021/04/05 03:28:38;;;;;;;10.43;5.97;;;;;;;4.59;68.80;95703.38;5039590;28;20462;-86
2021/04/05 03:31:08;;;;;;;13.43;6.07;;;;;;;4.54;69.08;95710.25;5039760;28;20456;-86
2021/04/05 03:33:39;;;;;;;17.77;5.87;;;;;;;4.56;69.15;95699.06;5038864;28;20424;-87
2021/04/05 03:36:11;;;;;;;10.00;6.30;;;;;;;4.56;69.17;95693.72;5039330;28;20920;-86
2021/04/05 03:38:37;;;;;;;9.67;5.80;;;;;;;4.61;68.34;95684.88;5039966;28;20470;-88
2021/04/05 03:41:15;;;;;;;8.73;6.07;;;;;;;4.54;68.97;95672.84;5040038;28;20480;-87
2021/04/05 03:43:47;;;;;;;13.87;6.03;;;;;;;4.53;68.94;95660.75;5039186;28;20796;-87
2021/04/05 03:46:19;;;;;;;17.90;6.90;;;;;;;4.51;69.44;95660.53;5039132;28;20412;-87
2021/04/05 03:48:56;;;;;;;11.30;6.00;;;;;;;4.55;68.97;95668.25;5040108;28;20810;-86
2021/04/05 03:51:30;;;;;;;13.90;6.40;;;;;;;4.49;68.98;95655.00;5039446;28;20462;-86
2021/04/05 03:54:03;;;;;;;16.90;6.03;;;;;;;4.38;69.58;95657.91;5040173;28;20560;-86
2021/04/05 03:56:38;;;;;;;12.10;6.33;;;;;;;4.30;69.81;95652.47;5048332;28;20928;-86
2021/04/05 03:59:09;;;;;;;15.53;6.00;;;;;;;4.25;70.54;95657.91;5048639;28;20559;-86
2021/04/05 04:01:44;;;;;;;12.47;5.37;;;;;;;4.24;70.21;95659.13;5047328;28;20510;-85
2021/04/05 04:04:14;;;;;;;12.37;5.97;;;;;;;4.25;70.51;95658.63;5046749;28;20427;-86
2021/04/05 04:06:49;;;;;;;13.30;6.30;;;;;;;4.15;70.83;95656.88;5041883;28;20831;-86
2021/04/05 04:09:18;;;;;;;10.47;5.97;;;;;;;4.07;71.26;95656.06;5039409;28;20434;-86
2021/04/05 04:11:50;;;;;;;9.90;5.30;;;;;;;4.14;71.28;95661.50;5044984;28;20454;-85
2021/04/05 04:14:18;;;;;;;12.07;5.80;;;;;;;4.25;70.96;95645.28;5046504;28;20447;-85
2021/04/05 04:16:45;;;;;;;8.53;5.57;;;;;;;4.22;70.96;95640.97;5045827;28;20443;-84
2021/04/05 04:19:11;;;;;;;18.33;5.50;;;;;;;4.23;70.81;95633.66;5044678;28;20491;-85
2021/04/05 04:21:40;;;;;;;10.30;5.43;;;;;;;4.21;70.96;95628.84;5040167;28;20471;-85
2021/04/05 04:24:08;;;;;;;13.50;5.97;;;;;;;4.34;70.63;95633.47;5039020;28;20444;-87
2021/04/05 04:26:35;;;;;;;9.70;5.23;;;;;;;4.34;70.66;95625.44;5039328;28;20451;-86
2021/04/05 04:29:02;;;;;;;9.70;5.40;;;;;;;4.40;70.40;95620.72;5039224;28;20539;-87
2021/04/05 04:31:29;;;;;;;11.53;5.93;;;;;;;4.37;70.53;95610.34;5040561;28;20467;-86
2021/04/05 04:33:55;;;;;;;9.17;5.03;;;;;;;4.37;70.35;95610.34;5040258;28;20552;-85
2021/04/05 04:36:22;;;;;;;11.37;6.27;;;;;;;4.36;70.29;95614.97;5039789;28;20447;-86
2021/04/05 04:38:51;;;;;;;9.80;5.60;;;;;;;4.32;70.13;95607.25;5039883;28;20578;-86
2021/04/05 04:41:23;;;;;;;9.20;5.73;;;;;;;4.30;70.42;95609.75;5040189;28;20473;-85
2021/04/05 04:43:54;;;;;;;13.70;5.93;;;;;;;4.21;70.34;95601.44;5040077;28;20518;-86
2021/04/05 04:46:21;;;;;;;9.63;5.43;;;;;;;4.19;70.68;95598.56;5039264;28;20408;-86
2021/04/05 04:48:47;;;;;;;10.60;6.07;;;;;;;4.17;70.76;95593.75;5038944;28;20515;-85
2021/04/05 04:51:13;;;;;;;9.50;4.60;;;;;;;4.25;70.59;95591.16;5039413;28;20539;-85
2021/04/05 04:53:39;;;;;;;15.43;5.97;;;;;;;4.26;70.57;95587.28;5040057;28;20463;-85
2021/04/05 04:56:06;;;;;;;13.67;6.30;;;;;;;4.27;70.43;95583.34;5039505;28;20447;-85
2021/04/05 04:58:32;;;;;;;12.97;5.33;;;;;;;4.29;70.66;95586.25;5039601;28;20530;-85
2021/04/05 05:00:58;;;;;;;9.80;5.50;;;;;;;4.35;70.27;95575.44;5039305;28;20530;-85
2021/04/05 05:03:27;;;;;;;10.03;6.10;;;;;;;4.43;70.33;95578.91;5039098;28;20487;-85
2021/04/05 05:05:53;;;;;;;9.30;4.80;;;;;;;4.38;70.00;95579.75;5038581;28;20461;-84
2021/04/05 05:08:20;;;;;;;9.80;5.60;;;;;;;4.53;69.55;95566.53;5039281;28;20525;-85
2021/04/05 05:10:47;;;;;;;13.10;6.17;;;;;;;4.57;69.25;95558.94;5038727;28;20550;-85
2021/04/05 05:13:14;;;;;;;9.97;5.23;;;;;;;4.65;69.15;95551.72;5038420;28;20443;-85
2021/04/05 05:15:41;;;;;;;12.07;5.73;;;;;;;4.68;68.89;95545.31;5038952;28;20443;-85
2021/04/05 05:18:08;;;;;;;10.13;5.13;;;;;;;4.64;68.38;95552.94;5038659;28;20538;-86
2021/04/05 05:20:35;;;;;;;9.93;5.20;;;;;;;4.74;68.54;95545.91;5039097;28;20467;-86
2021/04/05 05:23:03;;;;;;;10.80;6.37;;;;;;;4.81;68.25;95545.28;5039392;28;20529;-86
2021/04/05 05:25:31;;;;;;;9.63;5.73;;;;;;;4.90;67.95;95533.41;5039394;28;20432;-86
2021/04/05 05:28:01;;;;;;;9.60;5.17;;;;;;;4.86;67.63;95537.13;5039102;28;20453;-85
2021/04/05 05:30:29;;;;;;;15.10;6.10;;;;;;;4.85;68.06;95524.28;5038779;28;20960;-85
2021/04/05 05:32:55;;;;;;;16.10;6.67;;;;;;;4.92;67.57;95523.63;5038955;28;20447;-86
2021/04/05 05:35:23;;;;;;;11.73;5.77;;;;;;;4.99;67.14;95520.28;5038956;28;20479;-86
2021/04/05 05:37:51;;;;;;;12.43;5.07;;;;;;;4.93;67.36;95519.00;5039416;28;20458;-85
2021/04/05 05:40:20;;;;;;;8.80;5.67;;;;;;;4.98;67.27;95513.50;5039094;28;20581;-86
2021/04/05 05:42:58;;;;;;;9.07;5.30;;;;;;;5.07;67.13;95510.38;5038335;28;20495;-84
2021/04/05 05:45:30;;;;;;;10.80;5.20;;;;;;;5.22;66.67;95501.75;5041040;28;20499;-86
2021/04/05 05:48:04;;;;;;;11.67;5.03;;;;;;;5.37;66.07;95499.16;5044394;28;20427;-85
2021/04/05 05:50:37;;;;;;;8.23;4.27;;;;;;;5.42;65.70;95494.94;5042849;28;20917;-85
2021/04/05 05:53:22;;;;;;;13.53;4.60;;;;;;;5.58;64.97;95491.06;5043066;28;20416;-84
2021/04/05 05:56:03;;;;;;;10.23;4.70;;;;;;;5.68;64.55;95484.00;5043386;28;20407;-86
2021/04/05 05:58:38;;;;;;;14.00;5.47;;;;;;;5.76;64.32;95487.44;5043193;28;20408;-86
2021/04/05 06:01:11;;;;;;;17.20;5.30;;;;;;;5.83;64.24;95489.41;5043242;28;20494;-86
2021/04/05 06:03:51;;;;;;;12.40;5.20;;;;;;;6.03;63.50;95485.94;5042966;28;20546;-86
2021/04/05 06:06:19;;;;;;;11.93;4.63;;;;;;;6.20;63.08;95488.16;5043391;28;20577;-86
2021/04/05 06:09:03;;;;;;;8.70;4.73;;;;;;;6.34;62.59;95486.75;5042417;28;20451;-85
2021/04/05 06:11:45;;;;;;;9.30;4.83;;;;;;;6.56;61.26;95485.34;5042715;28;20838;-86
2021/04/05 06:14:32;;;;;;;10.27;6.90;;;;;;;6.64;61.26;95492.13;5042384;28;20483;-86
2021/04/05 06:17:05;;;;;;;10.23;4.83;;;;;;;6.57;61.30;95492.16;5042410;28;20435;-86
2021/04/05 06:19:45;;;;;;;12.43;5.23;;;;;;;6.52;61.38;95487.66;5042151;28;20482;-86
2021/04/05 06:22:20;;;;;;;10.70;5.67;;;;;;;6.66;60.89;95494.31;5042324;28;20464;-85
2021/04/05 06:24:55;;;;;;;14.70;6.30;;;;;;;6.64;60.61;95486.78;5042711;28;20423;-85
2021/04/05 06:27:34;;;;;;;9.70;4.27;;;;;;;6.78;60.71;95471.25;5042855;28;20804;-87
2021/04/05 06:30:08;;;;;;;7.50;4.47;;;;;;;6.82;60.50;95466.97;5041522;28;20518;-87
2021/04/05 06:32:54;;;;;;;8.60;5.97;;;;;;;7.05;59.33;95463.56;5043294;28;20568;-88
2021/04/05 06:35:44;;;;;;;12.03;5.40;;;;;;;7.01;59.00;95450.50;5043750;28;20507;-85
2021/04/05 06:38:16;;;;;;;10.03;4.77;;;;;;;7.13;59.46;95454.25;5043303;28;20432;-85
2021/04/05 06:40:44;;;;;;;12.73;4.80;;;;;;;7.12;58.94;95457.47;5043160;28;20470;-86
2021/04/05 06:43:42;;;;;;;12.30;5.40;;;;;;;7.25;58.57;95465.31;5042040;28;20443;-86
2021/04/05 06:46:27;;;;;;;14.00;4.97;;;;;;;7.23;59.00;95454.41;5016511;28;20497;-85
2021/04/05 06:49:17;;;;;;;14.17;5.37;;;;;;;7.24;58.20;95456.53;5042719;28;20412;-86
2021/04/05 06:52:17;;;;;;;10.83;5.30;;;;;;;7.31;58.08;95442.41;5042760;28;20483;-86
2021/04/05 06:55:20;;;;;;;10.40;4.50;;;;;;;7.47;57.48;95435.03;5042792;28;20405;-87
2021/04/05 06:58:02;;;;;;;12.03;4.87;;;;;;;7.55;57.65;95433.75;5041524;28;20940;-86
2021/04/05 07:00:36;;;;;;;11.43;4.90;;;;;;;7.61;57.13;95440.91;5042373;28;20529;-86
2021/04/05 07:03:40;;;;;;;13.40;4.50;;;;;;;7.65;56.85;95441.22;5042530;28;20436;-86
2021/04/05 07:06:21;;;;;;;9.87;5.47;;;;;;;7.78;56.56;95449.78;5042659;28;20443;-86
2021/04/05 07:08:58;;;;;;;8.83;4.60;;;;;;;7.84;56.78;95447.59;5042090;28;20424;-85
2021/04/05 07:11:34;;;;;;;10.13;4.57;;;;;;;7.97;56.36;95449.34;5042426;28;20881;-86
2021/04/05 07:14:13;;;;;;;9.57;5.53;;;;;;;8.13;56.13;95444.59;5042739;28;20414;-86
2021/04/05 07:16:51;;;;;;;9.20;4.90;;;;;;;8.13;56.28;95434.56;5043566;28;20477;-86
2021/04/05 07:19:34;;;;;;;5.60;4.67;;;;;;;8.20;56.04;95438.47;5040380;28;20496;-85
2021/04/05 07:22:11;;;;;;;9.00;5.40;;;;;;;8.26;55.57;95436.28;5040046;28;20469;-86
2021/04/05 07:24:49;;;;;;;9.30;5.00;;;;;;;8.51;55.07;95434.38;5042219;28;20422;-86
2021/04/05 07:27:20;;;;;;;9.07;4.43;;;;;;;8.76;54.32;95443.13;5041245;28;20408;-86
2021/04/05 07:29:56;;;;;;;7.50;4.33;;;;;;;8.94;53.93;95441.91;5040278;28;20399;-86
2021/04/05 07:32:34;;;;;;;6.70;4.17;;;;;;;9.21;53.74;95441.31;5040988;28;20469;-86
2021/04/05 07:35:07;;;;;;;10.07;5.27;;;;;;;9.51;52.35;95443.69;5041585;28;20480;-87
2021/04/05 07:37:43;;;;;;;11.17;5.60;;;;;;;9.76;52.16;95430.84;5044582;28;20429;-86
2021/04/05 07:40:22;;;;;;;9.90;4.90;;;;;;;9.97;50.37;95433.81;5059417;28;20433;-86
2021/04/05 07:42:52;;;;;;;8.20;4.67;;;;;;;10.27;50.03;95440.84;5059382;28;20510;-86
2021/04/05 07:45:25;;;;;;;7.50;4.03;;;;;;;10.49;49.51;95431.72;5058957;28;20483;-86
2021/04/05 07:47:59;;;;;;;10.40;4.87;;;;;;;11.01;48.36;95429.44;5051854;28;20478;-86
2021/04/05 07:50:35;;;;;;;10.87;5.37;;;;;;;11.72;46.66;95432.50;5039188;28;20478;-86
2021/04/05 07:53:05;;;;;;;10.20;5.13;;;;;;;12.06;46.09;95436.84;5040043;28;20477;-86
2021/04/05 07:55:31;;;;;;;10.90;4.77;;;;;;;12.40;45.60;95438.50;5041091;28;20527;-86
2021/04/05 07:58:04;;;;;;;10.90;4.60;;;;;;;12.79;44.60;95431.63;5041878;28;20422;-87
2021/04/05 08:00:36;;;;;;;8.83;5.00;;;;;;;13.17;43.34;95438.88;5040673;28;20543;-86
2021/04/05 08:03:15;;;;;;;11.50;5.23;;;;;;;13.33;42.87;95433.78;5040823;28;20424;-87
2021/04/05 08:06:00;;;;;;;11.50;5.10;;;;;;;13.18;43.70;95431.47;5040629;28;20527;-86
2021/04/05 08:08:37;;;;;;;11.87;4.90;;;;;;;13.26;43.19;95424.56;5038984;28;20894;-86
2021/04/05 08:11:11;;;;;;;9.53;5.00;;;;;;;13.67;42.33;95424.41;5039661;28;20516;-86
2021/04/05 08:13:47;;;;;;;9.57;5.07;;;;;;;13.91;42.23;95418.47;5039770;28;20436;-85
2021/04/05 08:16:22;;;;;;;14.80;6.00;;;;;;;14.19;41.38;95424.22;5039339;28;20427;-86
2021/04/05 08:18:56;;;;;;;10.80;5.30;;;;;;;14.16;41.96;95412.50;5019794;28;578028;-86
2021/04/05 08:21:30;;;;;;;10.30;5.90;;;;;;;14.06;41.63;95419.34;5040406;28;20523;-86
2021/04/05 08:24:04;;;;;;;14.43;5.20;;;;;;;14.08;41.70;95414.03;5041269;28;20456;-87
2021/04/05 08:26:37;;;;;;;12.33;5.67;;;;;;;14.08;41.88;95411.31;5041144;28;20970;-86
2021/04/05 08:29:10;;;;;;;8.83;4.90;;;;;;;14.05;42.21;95407.78;5043345;28;20799;-87
2021/04/05 08:31:52;;;;;;;16.80;6.20;;;;;;;14.03;42.05;95406.94;5059817;28;20418;-87
2021/04/05 08:34:42;;;;;;;11.40;5.10;;;;;;;14.02;42.25;95403.53;5059234;28;20419;-87
2021/04/05 08:37:19;;;;;;;21.63;5.33;;;;;;;13.79;42.35;95396.03;5058098;28;20408;-86
2021/04/05 08:39:54;;;;;;;8.83;4.70;;;;;;;13.77;41.85;95398.63;5040268;28;20437;-86
2021/04/05 08:42:26;;;;;;;9.53;4.23;;;;;;;13.42;40.68;95395.06;5040156;28;20452;-86
2021/04/05 08:44:58;;;;;;;10.43;3.73;;;;;;;13.68;40.17;95391.28;5040793;28;20440;-86
2021/04/05 08:47:29;;;;;;;8.43;3.73;;;;;;;13.59;40.87;95392.09;5040899;28;20478;-86
2021/04/05 08:50:00;;;;;;;7.00;4.03;;;;;;;13.60;40.13;95390.78;5039175;28;20446;-86
2021/04/05 08:52:29;;;;;;;13.07;4.57;;;;;;;13.34;41.05;95387.13;5039424;28;20558;-86
2021/04/05 08:54:59;;;;;;;7.70;4.00;;;;;;;13.44;41.41;95381.63;5040392;28;20491;-86
2021/04/05 08:57:30;;;;;;;16.63;4.07;;;;;;;13.52;40.24;95393.00;5039452;28;20537;-86
2021/04/05 09:00:01;;;;;;;14.53;4.67;;;;;;;13.48;41.19;95386.59;5040594;28;20475;-86
2021/04/05 09:02:35;;;;;;;10.53;4.13;;;;;;;13.50;41.02;95392.84;5039467;28;20441;-85
2021/04/05 09:05:06;;;;;;;6.37;3.60;;;;;;;13.52;40.98;95389.56;5038389;28;20629;-86
2021/04/05 09:07:48;;;;;;;8.70;3.90;;;;;;;13.29;40.09;95390.16;5039518;28;20449;-86
2021/04/05 09:10:21;;;;;;;6.60;3.60;;;;;;;12.86;39.87;95386.72;5039498;28;20481;-86
2021/04/05 09:12:49;;;;;;;10.30;3.97;;;;;;;12.79;40.13;95377.50;5038867;28;20489;-85
2021/04/05 09:15:58;;;;;;;12.47;3.60;;;;;;;12.64;39.52;95382.56;5039884;28;20550;-87
2021/04/05 09:19:11;;;;;;;10.60;3.40;;;;;;;12.48;40.35;95374.09;5041186;28;20533;-86
2021/04/05 09:22:11;;;;;;;9.03;3.67;;;;;;;12.44;40.79;95365.00;4958159;29;21018;-85
2021/04/05 09:24:53;;;;;;;9.37;4.13;;;;;;;12.34;41.08;95357.63;5037353;28;20421;-87
2021/04/05 09:27:41;;;;;;;7.53;4.20;;;;;;;12.27;40.68;95360.53;5040204;28;20483;-86
2021/04/05 09:30:29;;;;;;;14.10;4.00;;;;;;;12.21;41.02;95352.00;5040312;28;20503;-86
2021/04/05 09:33:31;;;;;;;6.40;3.70;;;;;;;12.32;41.29;95345.97;5039248;28;20402;-86
2021/04/05 09:36:16;;;;;;;5.90;3.53;;;;;;;12.20;41.33;95339.75;5034492;28;20493;-86
2021/04/05 09:38:53;;;;;;;18.27;3.60;;;;;;;12.21;41.98;95338.47;5039132;28;20463;-86
2021/04/05 09:41:36;;;;;;;6.63;3.20;;;;;;;12.28;41.54;95326.75;5038449;28;20549;-85
2021/04/05 09:44:27;;;;;;;10.80;3.60;;;;;;;12.22;40.71;95329.06;5039158;28;20422;-85
2021/04/05 09:47:21;;;;;;;7.50;3.50;;;;;;;12.26;40.35;95321.22;5039775;28;20443;-86
2021/04/05 09:49:59;;;;;;;7.13;3.13;;;;;;;12.30;41.45;95326.91;5039339;28;20411;-86
2021/04/05 09:52:52;;;;;;;10.70;3.60;;;;;;;12.36;41.34;95319.19;5038465;28;20479;-86
2021/04/05 09:55:25;;;;;;;12.10;4.47;;;;;;;12.40;41.15;95318.75;5039227;28;20447;-87
2021/04/05 09:57:56;;;;;;;7.00;3.70;;;;;;;12.37;40.31;95326.03;5037616;28;20399;-87
2021/04/05 10:00:23;;;;;;;11.93;4.23;;;;;;;12.38;40.55;95319.31;5040355;28;20479;-86
2021/04/05 10:02:52;;;;;;;6.77;3.07;;;;;;;12.47;40.30;95315.84;5041593;28;20471;-86
2021/04/05 10:05:20;;;;;;;5.47;3.53;;;;;;;12.37;40.22;95309.81;5040296;28;20462;-85
2021/04/05 10:07:49;;;;;;;12.27;4.00;;;;;;;12.32;40.40;95303.41;5038807;28;20422;-87
2021/04/05 10:10:18;;;;;;;13.80;6.03;;;;;;;12.43;40.37;95298.66;5038804;28;20479;-86
2021/04/05 10:12:47;;;;;;;10.47;4.27;;;;;;;12.31;40.01;95299.28;5039118;28;20525;-86
2021/04/05 10:15:16;;;;;;;6.00;3.10;;;;;;;12.25;41.18;95295.47;5038003;28;20428;-87
2021/04/05 10:17:48;;;;;;;11.17;4.20;;;;;;;12.20;41.05;95297.19;5038329;28;20428;-86
2021/04/05 10:20:16;;;;;;;8.97;4.70;;;;;;;12.25;39.90;95303.56;5039168;28;20482;-86
2021/04/05 10:22:45;;;;;;;10.63;3.80;;;;;;;12.28;39.66;95307.81;5040194;28;20549;-85
2021/04/05 10:25:15;;;;;;;6.77;3.60;;;;;;;12.44;41.07;95302.75;5040148;28;20441;-87
2021/04/05 10:27:44;;;;;;;11.63;4.93;;;;;;;12.47;41.17;95301.63;5039716;28;20454;-86
2021/04/05 10:30:15;;;;;;;9.03;2.70;;;;;;;12.60;40.85;95291.00;5040362;28;20463;-87
2021/04/05 10:32:42;;;;;;;6.90;3.43;;;;;;;12.70;40.53;95299.75;5043891;28;20471;-87
2021/04/05 10:35:11;;;;;;;10.27;3.70;;;;;;;12.56;39.48;95290.72;5042448;28;20814;-86
2021/04/05 10:37:42;;;;;;;9.70;4.10;;;;;;;12.59;39.74;95294.28;5041767;28;20459;-86
2021/04/05 10:40:12;;;;;;;10.47;3.23;;;;;;;12.79;38.62;95282.03;5041105;28;20459;-86
2021/04/05 10:42:47;;;;;;;12.43;4.03;;;;;;;12.68;37.87;95286.13;5040716;28;20509;-86
2021/04/05 10:45:18;;;;;;;8.37;3.23;;;;;;;12.54;37.93;95285.19;5041419;28;20438;-86
2021/04/05 10:47:52;;;;;;;11.83;4.23;;;;;;;12.58;37.99;95292.88;5043529;28;20775;-87
2021/04/05 10:50:24;;;;;;;5.73;3.40;;;;;;;12.71;38.14;95295.78;5060747;28;20431;-86
2021/04/05 10:52:53;;;;;;;6.33;3.87;;;;;;;12.81;36.39;95290.31;5061577;28;20393;-86
2021/04/05 10:55:22;;;;;;;8.93;3.60;;;;;;;12.59;35.46;95284.16;5061682;28;20450;-87
2021/04/05 10:57:53;;;;;;;8.80;3.53;;;;;;;12.73;36.01;95282.38;5059725;28;20418;-86
2021/04/05 11:00:22;;;;;;;14.80;3.30;;;;;;;12.86;35.80;95273.72;5043673;28;20803;-86
2021/04/05 11:02:55;;;;;;;10.00;4.60;;;;;;;12.80;35.20;95264.50;5041921;28;20596;-87
2021/04/05 11:05:24;;;;;;;13.43;5.77;;;;;;;12.89;34.72;95261.00;5042619;28;20390;-87
2021/04/05 11:07:57;;;;;;;6.03;3.00;;;;;;;13.02;34.33;95265.19;5043982;28;21002;-86
2021/04/05 11:10:24;;;;;;;10.53;3.60;;;;;;;13.03;34.09;95261.88;5043566;28;20454;-86
2021/04/05 11:12:55;;;;;;;7.40;3.57;;;;;;;13.09;34.50;95267.03;5041898;28;20525;-86
2021/04/05 11:15:23;;;;;;;10.60;3.43;;;;;;;13.02;33.74;95254.34;5040734;28;20458;-86
2021/04/05 11:17:52;;;;;;;10.73;2.93;;;;;;;12.96;34.20;95254.69;5040689;28;20936;-85
2021/04/05 11:20:20;;;;;;;9.70;2.97;;;;;;;12.99;33.95;95252.81;5042031;28;20504;-86
2021/04/05 11:22:55;;;;;;;8.37;3.83;;;;;;;12.89;34.26;95234.66;5041051;28;20466;-86
2021/04/05 11:25:24;;;;;;;7.93;3.10;;;;;;;12.88;34.54;95246.78;5041370;28;20401;-86
2021/04/05 11:27:55;;;;;;;10.87;4.33;;;;;;;12.97;34.90;95236.47;5041970;28;20423;-86
2021/04/05 11:30:25;;;;;;;13.80;3.90;;;;;;;12.90;35.17;95233.34;5042667;28;20498;-85
2021/04/05 11:32:52;;;;;;;7.80;3.93;;;;;;;13.03;35.21;95234.81;5039942;28;20421;-86
2021/04/05 11:35:21;;;;;;;5.60;2.67;;;;;;;13.08;35.60;95227.66;5040010;28;20505;-86
2021/04/05 11:37:51;;;;;;;10.30;3.73;;;;;;;13.10;35.90;95216.97;5040704;28;20478;-87
2021/04/05 11:40:20;;;;;;;10.20;3.20;;;;;;;13.14;36.38;95222.63;5042407;28;20513;-86
2021/04/05 11:42:49;;;;;;;5.43;3.00;;;;;;;13.33;36.54;95223.16;5039248;28;20448;-86
2021/04/05 11:45:21;;;;;;;5.83;4.07;;;;;;;13.29;37.45;95225.63;5040790;28;20469;-86
2021/04/05 11:47:52;;;;;;;8.43;4.50;;;;;;;13.09;38.81;95229.81;5041663;28;20406;-86
2021/04/05 11:50:22;;;;;;;9.40;4.60;;;;;;;13.00;39.06;95224.47;5041665;28;20523;-86
2021/04/05 11:52:52;;;;;;;11.30;4.73;;;;;;;13.00;39.63;95224.47;5041753;28;20465;-86
2021/04/05 11:55:26;;;;;;;13.27;5.67;;;;;;;12.94;39.87;95210.53;5041705;28;21029;-86
2021/04/05 11:57:59;;;;;;;11.07;5.63;;;;;;;12.73;40.80;95217.41;5041668;28;20454;-86